Time;durP1;ratioP1;P1;durP2;ratioP2;P2;SDS_P1;SDS_P2;PMS_P1;PMS_P2;Temp;Humidity;BMP_temperature;BMP_pressure;BME280_temperature;BME280_humidity;BME280_pressure;Samples;Min_cycle;Max_cycle;Signal;HPM_P1;HPM_P2
2023/10/26 00:00:23;;;;;;;;;;;17.50;99.90;;;;;;4915539;29;20279;-79
2023/10/26 00:02:48;;;;;;;;;;;17.50;99.90;;;;;;4917681;29;19915;-81
2023/10/26 00:05:14;;;;;;;;;;;17.60;99.90;;;;;;4918014;29;19986;-81
2023/10/26 00:07:40;;;;;;;;;;;17.60;99.90;;;;;;4900935;29;20302;-82
2023/10/26 00:10:06;;;;;;;;;;;17.60;99.90;;;;;;4900234;29;19907;-79
2023/10/26 00:12:31;;;;;;;;;;;17.60;99.90;;;;;;4918097;29;19918;-79
2023/10/26 00:14:57;;;;;;;;;;;17.60;99.90;;;;;;4917701;29;19907;-82
2023/10/26 00:17:23;;;;;;;;;;;17.60;99.90;;;;;;4921411;29;19946;-79
2023/10/26 00:19:48;;;;;;;;;;;17.50;99.90;;;;;;4935862;29;20374;-79
2023/10/26 00:22:14;;;;;;;;;;;17.50;99.90;;;;;;4938335;29;20271;-79
2023/10/26 00:24:39;;;;;;;;;;;17.50;99.90;;;;;;4919659;29;19935;-79
2023/10/26 00:27:05;;;;;;;;;;;17.50;99.90;;;;;;4919338;29;19934;-79
2023/10/26 00:29:30;;;;;;;;;;;17.50;99.90;;;;;;4919822;29;20422;-82
2023/10/26 00:31:56;;;;;;;;;;;17.50;99.90;;;;;;4936767;29;19907;-79
2023/10/26 00:34:21;;;;;;;;;;;17.50;99.90;;;;;;4921187;29;19898;-78
2023/10/26 00:36:47;;;;;;;;;;;17.40;99.90;;;;;;4921533;29;19910;-81
2023/10/26 00:39:13;;;;;;;;;;;17.40;99.90;;;;;;4936719;29;20358;-80
2023/10/26 00:41:38;;;;;;;;;;;17.40;99.90;;;;;;4924130;29;19911;-81
2023/10/26 00:44:04;;;;;;;;;;;17.40;99.90;;;;;;4915903;29;19911;-81
2023/10/26 00:46:30;;;;;;;;;;;17.40;99.90;;;;;;4918829;29;19923;-81
2023/10/26 00:48:56;;;;;;;;;;;17.40;99.90;;;;;;4941121;28;19910;-81
2023/10/26 00:51:21;;;;;;;;;;;17.30;99.90;;;;;;4957782;28;19977;-80
2023/10/26 00:53:47;;;;;;;;;;;17.30;99.90;;;;;;4932813;29;19929;-79
2023/10/26 00:56:13;;;;;;;;;;;17.30;99.90;;;;;;4938572;29;19918;-81
2023/10/26 00:58:39;;;;;;;;;;;17.30;99.90;;;;;;4937706;29;19914;-78
2023/10/26 01:01:05;;;;;;;;;;;17.20;99.90;;;;;;4928674;29;19946;-80
2023/10/26 01:03:32;;;;;;;;;;;17.20;99.90;;;;;;4941962;29;19923;-82
2023/10/26 01:05:57;;;;;;;;;;;17.20;99.90;;;;;;4918894;29;19954;-78
2023/10/26 01:08:23;;;;;;;;;;;17.20;99.90;;;;;;4919047;29;19907;-78
2023/10/26 01:10:49;;;;;;;;;;;17.10;99.90;;;;;;4935594;29;20382;-78
2023/10/26 01:13:15;;;;;;;;;;;17.10;99.90;;;;;;4901220;29;20009;-81
2023/10/26 01:15:41;;;;;;;;;;;17.00;99.90;;;;;;4902282;29;19915;-78
2023/10/26 01:18:06;;;;;;;;;;;17.00;99.90;;;;;;4907419;29;20357;-78
2023/10/26 01:20:32;;;;;;;;;;;17.00;99.90;;;;;;4915703;29;19918;-81
2023/10/26 01:22:57;;;;;;;;;;;16.90;99.90;;;;;;4930401;29;19919;-79
2023/10/26 01:25:23;;;;;;;;;;;16.90;99.90;;;;;;4925473;29;19987;-79
2023/10/26 01:27:48;;;;;;;;;;;16.90;99.90;;;;;;4919734;29;20371;-78
2023/10/26 01:30:16;;;;;;;;;;;16.90;99.90;;;;;;4921067;29;19914;-81
2023/10/26 01:32:42;;;;;;;;;;;16.90;99.90;;;;;;4920746;29;19953;-78
2023/10/26 01:35:08;;;;;;;;;;;16.90;99.90;;;;;;4920863;29;20343;-78
2023/10/26 01:37:33;;;;;;;;;;;17.00;99.90;;;;;;4918605;29;19918;-81
2023/10/26 01:39:59;;;;;;;;;;;17.00;99.90;;;;;;4920966;29;20402;-79
2023/10/26 01:42:24;;;;;;;;;;;16.90;99.90;;;;;;4937382;29;19907;-79
2023/10/26 01:44:50;;;;;;;;;;;16.90;99.90;;;;;;4938934;29;20359;-79
2023/10/26 01:47:17;;;;;;;;;;;16.90;99.90;;;;;;4943645;29;19915;-80
2023/10/26 01:49:44;;;;;;;;;;;16.90;99.90;;;;;;4919128;29;20382;-81
2023/10/26 01:52:09;;;;;;;;;;;16.90;99.90;;;;;;4919895;29;19911;-78
2023/10/26 01:54:35;;;;;;;;;;;16.90;99.90;;;;;;4918931;29;19934;-81
2023/10/26 01:57:02;;;;;;;;;;;16.80;99.90;;;;;;4920351;29;19907;-81
2023/10/26 01:59:28;;;;;;;;;;;16.80;99.90;;;;;;4919107;29;19907;-81
2023/10/26 02:01:53;;;;;;;;;;;16.80;99.90;;;;;;4935108;29;20385;-78
2023/10/26 02:04:19;;;;;;;;;;;16.80;99.90;;;;;;4943463;29;19906;-79
2023/10/26 02:06:44;;;;;;;;;;;16.80;99.90;;;;;;4948362;29;19918;-80
2023/10/26 02:09:10;;;;;;;;;;;16.70;99.90;;;;;;4925434;29;19918;-79
2023/10/26 02:11:35;;;;;;;;;;;16.70;99.90;;;;;;4916911;29;19915;-79
2023/10/26 02:14:01;;;;;;;;;;;16.70;99.90;;;;;;4899841;29;20099;-78
2023/10/26 02:16:26;;;;;;;;;;;16.70;99.90;;;;;;4900230;29;19922;-79
2023/10/26 02:18:52;;;;;;;;;;;16.60;99.90;;;;;;4902330;29;19919;-78
2023/10/26 02:21:17;;;;;;;;;;;16.60;99.90;;;;;;4884276;29;19907;-81
2023/10/26 02:23:44;;;;;;;;;;;16.60;99.90;;;;;;4883750;29;20387;-78
2023/10/26 02:26:09;;;;;;;;;;;16.60;99.90;;;;;;4884069;29;19959;-81
2023/10/26 02:28:35;;;;;;;;;;;16.60;99.90;;;;;;4884282;29;19907;-79
2023/10/26 02:31:00;;;;;;;;;;;16.50;99.90;;;;;;4884510;29;19912;-78
2023/10/26 02:33:26;;;;;;;;;;;16.50;99.90;;;;;;4913509;29;19895;-80
2023/10/26 02:35:51;;;;;;;;;;;16.50;99.90;;;;;;4902518;29;20004;-78
2023/10/26 02:38:17;;;;;;;;;;;16.50;99.90;;;;;;4917729;29;19915;-81
2023/10/26 02:40:43;;;;;;;;;;;16.40;99.90;;;;;;4919298;29;19907;-81
2023/10/26 02:43:08;;;;;;;;;;;16.40;99.90;;;;;;4919384;29;19915;-80
2023/10/26 02:45:34;;;;;;;;;;;16.50;99.90;;;;;;4919529;29;20401;-81
2023/10/26 02:47:59;;;;;;;;;;;16.40;99.90;;;;;;4902771;29;19914;-78
2023/10/26 02:50:25;;;;;;;;;;;16.40;99.90;;;;;;4922908;29;19918;-80
2023/10/26 02:52:51;;;;;;;;;;;16.40;99.90;;;;;;4919450;29;20024;-81
2023/10/26 02:55:16;;;;;;;;;;;16.40;99.90;;;;;;4917774;29;20286;-81
2023/10/26 02:57:42;;;;;;;;;;;16.40;99.90;;;;;;4919237;29;19918;-78
2023/10/26 03:00:08;;;;;;;;;;;16.40;99.90;;;;;;4918047;29;20371;-78
2023/10/26 03:02:33;;;;;;;;;;;16.30;99.90;;;;;;4919225;29;20397;-78
2023/10/26 03:04:59;;;;;;;;;;;16.30;99.90;;;;;;4917982;29;19907;-81
2023/10/26 03:07:24;;;;;;;;;;;16.30;99.90;;;;;;4919153;29;19958;-79
2023/10/26 03:09:50;;;;;;;;;;;16.20;99.90;;;;;;4917638;29;19915;-81
2023/10/26 03:12:16;;;;;;;;;;;16.30;99.90;;;;;;4908946;29;20367;-79
2023/10/26 03:14:42;;;;;;;;;;;16.30;99.90;;;;;;4900607;29;19912;-78
2023/10/26 03:17:07;;;;;;;;;;;16.30;99.90;;;;;;4905246;29;19914;-78
2023/10/26 03:19:33;;;;;;;;;;;16.20;99.90;;;;;;4920812;29;19914;-81
2023/10/26 03:21:58;;;;;;;;;;;16.20;99.90;;;;;;4928356;29;19915;-78
2023/10/26 03:24:24;;;;;;;;;;;16.20;99.90;;;;;;4937818;29;20294;-80
2023/10/26 03:26:49;;;;;;;;;;;16.30;99.90;;;;;;4938054;29;19907;-78
2023/10/26 03:29:15;;;;;;;;;;;16.30;99.90;;;;;;4920684;29;19932;-78
2023/10/26 03:31:41;;;;;;;;;;;16.30;99.90;;;;;;4948098;29;20354;-81
2023/10/26 03:34:07;;;;;;;;;;;16.40;99.90;;;;;;4956910;29;20384;-78
2023/10/26 03:36:32;;;;;;;;;;;16.30;99.90;;;;;;4954903;29;19915;-80
2023/10/26 03:38:58;;;;;;;;;;;16.40;99.90;;;;;;4937200;29;20338;-78
2023/10/26 03:41:23;;;;;;;;;;;16.30;99.90;;;;;;4927361;29;19911;-78
2023/10/26 03:43:50;;;;;;;;;;;16.30;99.90;;;;;;4920778;29;19918;-80
2023/10/26 03:46:15;;;;;;;;;;;16.30;99.90;;;;;;4936773;29;20322;-81
2023/10/26 03:48:41;;;;;;;;;;;16.30;99.90;;;;;;4937330;29;19907;-81
2023/10/26 03:51:06;;;;;;;;;;;16.30;99.90;;;;;;4936128;29;19906;-78
2023/10/26 03:53:32;;;;;;;;;;;16.40;99.90;;;;;;4936786;29;19918;-78
2023/10/26 03:55:58;;;;;;;;;;;16.30;99.90;;;;;;4938397;29;19907;-79
2023/10/26 03:58:23;;;;;;;;;;;16.30;99.90;;;;;;4937342;29;19907;-79
2023/10/26 04:00:51;;;;;;;;;;;16.30;99.90;;;;;;4931068;29;19908;-80
2023/10/26 04:03:16;;;;;;;;;;;16.30;99.90;;;;;;4920004;29;19911;-80
2023/10/26 04:05:42;;;;;;;;;;;16.30;99.90;;;;;;4937242;29;20374;-80
2023/10/26 04:08:07;;;;;;;;;;;16.20;99.90;;;;;;4936953;29;19907;-81
2023/10/26 04:10:34;;;;;;;;;;;16.20;99.90;;;;;;4915078;29;19914;-79
2023/10/26 04:12:59;;;;;;;;;;;16.20;99.90;;;;;;4943986;29;19954;-78
2023/10/26 04:15:25;;;;;;;;;;;16.20;99.90;;;;;;4919815;29;20388;-81
2023/10/26 04:17:51;;;;;;;;;;;16.20;99.90;;;;;;4936715;29;20503;-78
2023/10/26 04:20:16;;;;;;;;;;;16.20;99.90;;;;;;4919858;29;19941;-81
2023/10/26 04:22:42;;;;;;;;;;;16.20;99.90;;;;;;4919426;29;19919;-80
2023/10/26 04:25:07;;;;;;;;;;;16.20;99.90;;;;;;4918604;29;20358;-81
2023/10/26 04:27:33;;;;;;;;;;;16.10;99.90;;;;;;4919998;29;19913;-81
2023/10/26 04:29:58;;;;;;;;;;;16.10;99.90;;;;;;4949272;29;19905;-80
2023/10/26 04:32:24;;;;;;;;;;;16.10;99.90;;;;;;4947811;29;19918;-78
2023/10/26 04:34:50;;;;;;;;;;;16.00;99.90;;;;;;4936749;29;19913;-81
2023/10/26 04:37:15;;;;;;;;;;;16.00;99.90;;;;;;4934742;29;19911;-80
2023/10/26 04:39:44;;;;;;;;;;;16.00;99.90;;;;;;4932990;29;19946;-80
2023/10/26 04:42:10;;;;;;;;;;;16.00;99.90;;;;;;4904764;29;19911;-80
2023/10/26 04:44:36;;;;;;;;;;;16.00;99.90;;;;;;4920492;29;19910;-78
2023/10/26 04:47:02;;;;;;;;;;;16.10;99.90;;;;;;4941958;29;19915;-80
2023/10/26 04:49:28;;;;;;;;;;;16.00;99.90;;;;;;4936272;29;20358;-80
2023/10/26 04:51:53;;;;;;;;;;;16.10;99.90;;;;;;4934673;29;19907;-78
2023/10/26 04:54:19;;;;;;;;;;;16.00;99.90;;;;;;4930414;29;19981;-80
2023/10/26 04:56:44;;;;;;;;;;;16.00;99.90;;;;;;4936123;29;19906;-80
2023/10/26 04:59:11;;;;;;;;;;;16.00;99.90;;;;;;4936485;29;19906;-80
2023/10/26 05:01:37;;;;;;;;;;;16.00;99.90;;;;;;4923815;29;19931;-78
2023/10/26 05:04:02;;;;;;;;;;;16.00;99.90;;;;;;4918809;29;19962;-78
2023/10/26 05:06:28;;;;;;;;;;;16.10;99.90;;;;;;4947015;29;19923;-80
2023/10/26 05:08:53;;;;;;;;;;;16.00;99.90;;;;;;4938570;29;20301;-78
2023/10/26 05:11:19;;;;;;;;;;;16.00;99.90;;;;;;4915599;29;19906;-78
2023/10/26 05:13:44;;;;;;;;;;;16.10;99.90;;;;;;4936020;29;19907;-79
2023/10/26 05:16:10;;;;;;;;;;;16.10;99.90;;;;;;4918224;29;19957;-79
2023/10/26 05:18:36;;;;;;;;;;;16.10;99.90;;;;;;4930291;29;19914;-78
2023/10/26 05:21:02;;;;;;;;;;;16.10;99.90;;;;;;4925086;29;19922;-80
2023/10/26 05:23:27;;;;;;;;;;;16.10;99.90;;;;;;4915571;29;19966;-78
2023/10/26 05:25:53;;;;;;;;;;;16.10;99.90;;;;;;4915512;29;19907;-80
2023/10/26 05:28:18;;;;;;;;;;;16.00;99.90;;;;;;4917165;29;19907;-78
2023/10/26 05:30:44;;;;;;;;;;;16.00;99.90;;;;;;4917141;29;19907;-78
2023/10/26 05:33:09;;;;;;;;;;;16.00;99.90;;;;;;4918047;29;19915;-78
2023/10/26 05:35:35;;;;;;;;;;;15.90;99.90;;;;;;4917095;29;19911;-80
2023/10/26 05:38:03;;;;;;;;;;;15.90;99.90;;;;;;4914776;29;20445;-78
2023/10/26 05:40:30;;;;;;;;;;;15.90;99.90;;;;;;4916350;29;19971;-80
2023/10/26 05:42:55;;;;;;;;;;;15.90;99.90;;;;;;4913479;29;19915;-80
2023/10/26 05:45:21;;;;;;;;;;;15.90;99.90;;;;;;4914856;29;19907;-79
2023/10/26 05:47:52;;;;;;;;;;;15.90;99.90;;;;;;4928673;29;19998;-80
2023/10/26 05:50:18;;;;;;;;;;;15.90;99.90;;;;;;4928809;29;20045;-79
2023/10/26 05:52:44;;;;;;;;;;;15.90;99.90;;;;;;4915002;29;19957;-80
2023/10/26 05:55:09;;;;;;;;;;;15.90;99.90;;;;;;4917257;29;19938;-79
2023/10/26 05:57:35;;;;;;;;;;;15.80;99.90;;;;;;4915667;29;19907;-79
2023/10/26 06:00:00;;;;;;;;;;;15.80;99.90;;;;;;4916557;29;19908;-79
2023/10/26 06:02:26;;;;;;;;;;;15.70;99.90;;;;;;4916898;29;19929;-79
2023/10/26 06:04:52;;;;;;;;;;;15.70;99.90;;;;;;4919232;29;19911;-79
2023/10/26 06:07:17;;;;;;;;;;;15.80;99.90;;;;;;4918245;29;19913;-79
2023/10/26 06:09:43;;;;;;;;;;;15.80;99.90;;;;;;4919111;29;20081;-81
2023/10/26 06:12:09;;;;;;;;;;;15.70;99.90;;;;;;4918883;29;19990;-79
2023/10/26 06:14:35;;;;;;;;;;;15.70;99.90;;;;;;4919284;29;19946;-80
2023/10/26 06:17:01;;;;;;;;;;;15.70;99.90;;;;;;4914162;29;19916;-79
2023/10/26 06:19:26;;;;;;;;;;;15.60;99.90;;;;;;4935056;29;19902;-80
2023/10/26 06:21:52;;;;;;;;;;;15.60;99.90;;;;;;4935967;29;19919;-80
2023/10/26 06:24:17;;;;;;;;;;;15.60;99.90;;;;;;4918467;29;19915;-79
2023/10/26 06:26:43;;;;;;;;;;;15.60;99.90;;;;;;4920140;29;19907;-80
2023/10/26 06:29:08;;;;;;;;;;;15.60;99.90;;;;;;4919903;29;19918;-81
2023/10/26 06:31:34;;;;;;;;;;;15.60;99.90;;;;;;4917401;29;19918;-84
2023/10/26 06:33:59;;;;;;;;;;;15.60;99.90;;;;;;4901033;29;19973;-80
2023/10/26 06:36:25;;;;;;;;;;;15.60;99.90;;;;;;4898467;29;19915;-81
2023/10/26 06:38:50;;;;;;;;;;;15.60;99.90;;;;;;4913309;29;19915;-79
2023/10/26 06:41:16;;;;;;;;;;;15.50;99.90;;;;;;4915021;29;20410;-81
2023/10/26 06:43:42;;;;;;;;;;;15.50;99.90;;;;;;4907192;29;19982;-80
2023/10/26 06:46:08;;;;;;;;;;;15.50;99.90;;;;;;4918038;29;19911;-81
2023/10/26 06:48:33;;;;;;;;;;;15.40;99.90;;;;;;4908744;29;19911;-83
2023/10/26 06:51:00;;;;;;;;;;;15.40;99.90;;;;;;4902320;29;20683;-82
2023/10/26 06:53:25;;;;;;;;;;;15.40;99.90;;;;;;4914882;29;19919;-80
2023/10/26 06:55:52;;;;;;;;;;;15.40;99.90;;;;;;4929018;29;19931;-82
2023/10/26 06:58:17;;;;;;;;;;;15.40;99.90;;;;;;4916969;29;20001;-81
2023/10/26 07:00:43;;;;;;;;;;;15.40;99.90;;;;;;4908165;29;19907;-81
2023/10/26 07:03:08;;;;;;;;;;;15.30;99.90;;;;;;4918699;29;19919;-82
2023/10/26 07:05:34;;;;;;;;;;;15.40;99.90;;;;;;4917325;29;19907;-83
2023/10/26 07:07:59;;;;;;;;;;;15.40;99.90;;;;;;4917958;29;19911;-81
2023/10/26 07:10:25;;;;;;;;;;;15.40;99.90;;;;;;4918277;29;19915;-82
2023/10/26 07:12:51;;;;;;;;;;;15.50;99.90;;;;;;4904760;29;19911;-83
2023/10/26 07:15:16;;;;;;;;;;;15.50;99.90;;;;;;4900475;29;20295;-83
2023/10/26 07:17:42;;;;;;;;;;;15.50;99.90;;;;;;4904066;29;20418;-83
2023/10/26 07:20:08;;;;;;;;;;;15.60;99.90;;;;;;4913474;29;19908;-81
2023/10/26 07:22:33;;;;;;;;;;;15.60;99.90;;;;;;4899022;29;19907;-82
2023/10/26 07:24:59;;;;;;;;;;;15.70;99.90;;;;;;4921983;29;19937;-82
2023/10/26 07:27:24;;;;;;;;;;;15.70;99.90;;;;;;4917943;29;19954;-82
2023/10/26 07:29:50;;;;;;;;;;;15.80;99.90;;;;;;4918332;29;19907;-82
2023/10/26 07:32:15;;;;;;;;;;;15.90;99.90;;;;;;4918276;29;19914;-83
2023/10/26 07:34:41;;;;;;;;;;;16.00;99.90;;;;;;4935835;29;19914;-82
2023/10/26 07:37:06;;;;;;;;;;;16.00;99.90;;;;;;4916660;29;19997;-81
2023/10/26 07:39:33;;;;;;;;;;;16.00;99.90;;;;;;4916590;29;19915;-83
2023/10/26 07:41:58;;;;;;;;;;;16.00;99.90;;;;;;4916329;29;20346;-82
2023/10/26 07:44:24;;;;;;;;;;;16.00;99.90;;;;;;4923724;29;19919;-83
2023/10/26 07:46:49;;;;;;;;;;;16.00;99.90;;;;;;4915079;29;19911;-83
2023/10/26 07:49:15;;;;;;;;;;;15.90;99.90;;;;;;4922719;29;20398;-81
2023/10/26 07:51:40;;;;;;;;;;;15.90;99.90;;;;;;4915739;29;19998;-82
2023/10/26 07:54:06;;;;;;;;;;;15.90;99.90;;;;;;4916361;29;19913;-82
2023/10/26 07:56:31;;;;;;;;;;;15.80;99.90;;;;;;4919037;29;19911;-81
2023/10/26 07:58:58;;;;;;;;;;;15.80;99.90;;;;;;4925782;29;19984;-79
2023/10/26 08:01:23;;;;;;;;;;;15.80;99.90;;;;;;4930894;29;19914;-82
2023/10/26 08:03:49;;;;;;;;;;;15.80;99.90;;;;;;4906216;29;19923;-81
2023/10/26 08:06:14;;;;;;;;;;;15.80;99.90;;;;;;4913952;29;19931;-80
2023/10/26 08:08:40;;;;;;;;;;;15.80;99.90;;;;;;4914731;29;19915;-80
2023/10/26 08:11:07;;;;;;;;;;;15.80;99.90;;;;;;4919616;29;19921;-80
2023/10/26 08:13:33;;;;;;;;;;;15.80;99.90;;;;;;4916356;29;20457;-79
2023/10/26 08:16:00;;;;;;;;;;;15.80;99.90;;;;;;4918047;29;20358;-80
2023/10/26 08:18:26;;;;;;;;;;;15.80;99.90;;;;;;4940070;29;19926;-82
2023/10/26 08:20:51;;;;;;;;;;;15.80;99.90;;;;;;4933962;29;20409;-79
2023/10/26 08:23:17;;;;;;;;;;;15.80;99.90;;;;;;4936118;29;19937;-82
2023/10/26 08:25:42;;;;;;;;;;;15.80;99.90;;;;;;4934930;29;19954;-82
2023/10/26 08:28:08;;;;;;;;;;;15.80;99.90;;;;;;4948942;29;20001;-83
2023/10/26 08:30:33;;;;;;;;;;;15.80;99.90;;;;;;4942640;29;20381;-83
2023/10/26 08:33:04;;;;;;;;;;;15.80;99.90;;;;;;4929433;29;19914;-82
2023/10/26 08:35:32;;;;;;;;;;;15.80;99.90;;;;;;4954601;29;20373;-82
2023/10/26 08:37:57;;;;;;;;;;;15.90;99.90;;;;;;4938475;29;20275;-81
2023/10/26 08:40:23;;;;;;;;;;;15.90;99.90;;;;;;4932305;29;19917;-82
2023/10/26 08:42:50;;;;;;;;;;;15.90;99.90;;;;;;4919997;29;19921;-81
2023/10/26 08:45:22;;;;;;;;;;;16.00;99.90;;;;;;4935676;29;19914;-81
2023/10/26 08:47:48;;;;;;;;;;;16.00;99.90;;;;;;4941525;29;19917;-82
2023/10/26 08:50:14;;;;;;;;;;;16.10;99.90;;;;;;4918347;29;19907;-78
2023/10/26 08:52:40;;;;;;;;;;;16.10;99.90;;;;;;4935303;29;20334;-80
2023/10/26 08:55:06;;;;;;;;;;;16.20;99.90;;;;;;4918511;29;19926;-81
2023/10/26 08:57:31;;;;;;;;;;;16.20;99.90;;;;;;4923722;29;19927;-80
2023/10/26 08:59:57;;;;;;;;;;;16.20;99.90;;;;;;4937734;29;19911;-79
2023/10/26 09:02:22;;;;;;;;;;;16.20;99.90;;;;;;4900009;29;19907;-82
2023/10/26 09:05:02;;;;;;;;;;;16.20;99.90;;;;;;4898182;29;20386;-78
2023/10/26 09:07:27;;;;;;;;;;;16.20;99.90;;;;;;4915557;29;19915;-78
2023/10/26 09:09:53;;;;;;;;;;;16.20;99.90;;;;;;4902182;29;19962;-81
2023/10/26 09:12:18;;;;;;;;;;;16.30;99.90;;;;;;4919959;29;19911;-81
2023/10/26 09:14:57;;;;;;;;;;;16.30;99.90;;;;;;4898737;29;20418;-82
2023/10/26 09:17:29;;;;;;;;;;;16.40;99.90;;;;;;4922931;29;19919;-81
2023/10/26 09:19:55;;;;;;;;;;;16.40;99.90;;;;;;4914375;29;19911;-82
2023/10/26 09:22:34;;;;;;;;;;;16.40;99.90;;;;;;4898055;29;19911;-82
2023/10/26 09:25:06;;;;;;;;;;;16.40;99.90;;;;;;4914094;29;19914;-82
2023/10/26 09:27:31;;;;;;;;;;;16.40;99.90;;;;;;4896947;29;20010;-83
2023/10/26 09:29:57;;;;;;;;;;;16.40;99.90;;;;;;4895710;29;20446;-82
2023/10/26 09:32:32;;;;;;;;;;;16.40;99.90;;;;;;4921686;29;19994;-84
2023/10/26 09:34:57;;;;;;;;;;;16.30;99.90;;;;;;4944745;29;19954;-86
2023/10/26 09:37:23;;;;;;;;;;;16.00;99.90;;;;;;4914624;29;20323;-81
2023/10/26 09:39:50;;;;;;;;;;;15.90;99.90;;;;;;4915392;29;19961;-82
2023/10/26 09:42:16;;;;;;;;;;;15.90;99.90;;;;;;4915288;29;20648;-81
2023/10/26 09:44:41;;;;;;;;;;;15.90;99.90;;;;;;4917722;29;19915;-84
2023/10/26 09:47:07;;;;;;;;;;;15.90;99.90;;;;;;4920213;29;19913;-81
2023/10/26 09:49:33;;;;;;;;;;;15.90;99.90;;;;;;4934192;29;19918;-83
2023/10/26 09:51:58;;;;;;;;;;;16.00;99.90;;;;;;4912446;29;19911;-84
2023/10/26 09:54:28;;;;;;;;;;;16.10;99.90;;;;;;4930648;29;19911;-83
2023/10/26 09:56:57;;;;;;;;;;;16.20;99.90;;;;;;4920956;29;19907;-84
2023/10/26 09:59:23;;;;;;;;;;;16.30;99.90;;;;;;4917398;29;19942;-83
2023/10/26 10:01:49;;;;;;;;;;;16.30;99.90;;;;;;4919532;29;19997;-84
2023/10/26 10:04:18;;;;;;;;;;;16.20;99.90;;;;;;4918190;29;19922;-82
2023/10/26 10:06:48;;;;;;;;;;;16.20;99.90;;;;;;4907883;29;19911;-81
2023/10/26 10:09:17;;;;;;;;;;;16.30;99.90;;;;;;4919744;29;20409;-80
2023/10/26 10:11:42;;;;;;;;;;;16.50;99.90;;;;;;4918551;29;20006;-81
2023/10/26 10:14:08;;;;;;;;;;;16.40;99.90;;;;;;4900295;29;19968;-80
2023/10/26 10:16:33;;;;;;;;;;;16.40;99.90;;;;;;4898514;29;20347;-80
2023/10/26 10:19:20;;;;;;;;;;;16.30;99.90;;;;;;4913438;29;20025;-79
2023/10/26 10:21:47;;;;;;;;;;;16.30;99.90;;;;;;4895518;29;20376;-79
2023/10/26 10:24:32;;;;;;;;;;;16.40;99.90;;;;;;4888617;29;19922;-80
2023/10/26 10:27:07;;;;;;;;;;;16.40;99.90;;;;;;4899096;29;19911;-79
2023/10/26 10:29:32;;;;;;;;;;;16.40;99.90;;;;;;4903226;29;19973;-81
2023/10/26 10:31:58;;;;;;;;;;;16.50;99.90;;;;;;4899240;29;19943;-81
2023/10/26 10:34:25;;;;;;;;;;;16.50;99.90;;;;;;4917153;29;19914;-83
2023/10/26 10:37:09;;;;;;;;;;;16.60;99.90;;;;;;4900898;29;20294;-82
2023/10/26 10:39:35;;;;;;;;;;;16.60;99.90;;;;;;4915459;29;19911;-82
2023/10/26 10:42:01;;;;;;;;;;;16.70;99.90;;;;;;4918463;29;19911;-83
2023/10/26 10:44:27;;;;;;;;;;;16.70;99.90;;;;;;4897778;29;19917;-83
2023/10/26 10:46:52;;;;;;;;;;;16.70;99.90;;;;;;4899026;29;19970;-81
2023/10/26 10:49:23;;;;;;;;;;;16.80;99.90;;;;;;4894047;29;19911;-81
2023/10/26 10:51:49;;;;;;;;;;;16.90;99.90;;;;;;4909113;29;19981;-83
2023/10/26 10:54:20;;;;;;;;;;;17.00;99.90;;;;;;4911205;29;20371;-83
2023/10/26 10:56:49;;;;;;;;;;;17.20;99.90;;;;;;4923938;29;19942;-82
2023/10/26 10:59:22;;;;;;;;;;;17.20;99.90;;;;;;4899371;29;19923;-80
2023/10/26 11:02:05;;;;;;;;;;;17.20;99.90;;;;;;4895886;29;19954;-82
2023/10/26 11:04:30;;;;;;;;;;;17.10;99.90;;;;;;4897422;29;20390;-85
2023/10/26 11:06:56;;;;;;;;;;;17.10;99.90;;;;;;4906699;29;19922;-84
2023/10/26 11:09:26;;;;;;;;;;;17.10;99.90;;;;;;4908227;29;19911;-82
2023/10/26 11:11:51;;;;;;;;;;;17.10;99.90;;;;;;4905876;29;20267;-83
2023/10/26 11:14:18;;;;;;;;;;;17.10;99.90;;;;;;4900131;29;19919;-84
2023/10/26 11:16:44;;;;;;;;;;;17.20;99.90;;;;;;4915534;29;19962;-82
2023/10/26 11:19:09;;;;;;;;;;;17.30;99.90;;;;;;4918733;29;19919;-82
2023/10/26 11:21:35;;;;;;;;;;;17.30;99.90;;;;;;4910124;29;19965;-85
2023/10/26 11:24:01;;;;;;;;;;;17.50;99.90;;;;;;4901641;29;20414;-83
2023/10/26 11:26:27;;;;;;;;;;;17.50;99.90;;;;;;4894142;29;20418;-85
2023/10/26 11:28:52;;;;;;;;;;;17.40;99.90;;;;;;4893155;29;19922;-84
2023/10/26 11:31:47;;;;;;;;;;;17.40;99.90;;;;;;4894319;29;20017;-84
2023/10/26 11:34:13;;;;;;;;;;;17.50;99.90;;;;;;4882061;29;20827;-81
2023/10/26 11:36:38;;;;;;;;;;;17.40;99.90;;;;;;4896817;29;19911;-82
2023/10/26 11:39:04;;;;;;;;;;;17.40;99.90;;;;;;4896660;29;20077;-83
2023/10/26 11:41:30;;;;;;;;;;;17.30;99.90;;;;;;4912234;29;20318;-85
2023/10/26 11:43:56;;;;;;;;;;;17.20;99.90;;;;;;4893327;29;20017;-81
2023/10/26 11:46:28;;;;;;;;;;;17.10;99.90;;;;;;4912732;29;20053;-81
2023/10/26 11:48:53;;;;;;;;;;;17.00;99.90;;;;;;4926643;29;19903;-85
2023/10/26 11:51:19;;;;;;;;;;;16.90;99.90;;;;;;4895887;29;19922;-86
2023/10/26 11:53:45;;;;;;;;;;;16.80;99.90;;;;;;4892940;29;20319;-83
2023/10/26 11:56:10;;;;;;;;;;;16.70;99.90;;;;;;4892569;29;19911;-85
2023/10/26 11:58:36;;;;;;;;;;;16.60;99.90;;;;;;4893388;29;19911;-86
2023/10/26 12:01:03;;;;;;;;;;;16.50;99.90;;;;;;4911259;29;20026;-85
2023/10/26 12:03:29;;;;;;;;;;;16.50;99.90;;;;;;4880636;29;20741;-83
2023/10/26 12:05:54;;;;;;;;;;;16.40;99.90;;;;;;4892675;29;20014;-81
2023/10/26 12:08:20;;;;;;;;;;;16.40;99.90;;;;;;4890054;29;19910;-82
2023/10/26 12:10:46;;;;;;;;;;;16.40;99.90;;;;;;4912809;29;19914;-86
2023/10/26 12:13:12;;;;;;;;;;;16.30;99.90;;;;;;4913756;29;20387;-82
2023/10/26 12:15:37;;;;;;;;;;;16.30;99.90;;;;;;4917053;29;20237;-80
2023/10/26 12:18:03;;;;;;;;;;;16.40;99.90;;;;;;4917738;29;20376;-84
2023/10/26 12:20:28;;;;;;;;;;;16.30;99.90;;;;;;4903355;29;20471;-85
2023/10/26 12:22:54;;;;;;;;;;;16.30;99.90;;;;;;4903158;29;19915;-84
2023/10/26 12:25:19;;;;;;;;;;;16.30;99.90;;;;;;4893736;29;19911;-85
2023/10/26 12:27:45;;;;;;;;;;;16.30;99.90;;;;;;4894607;29;20009;-85
2023/10/26 12:30:11;;;;;;;;;;;16.30;99.90;;;;;;4894262;29;19915;-85
2023/10/26 12:32:37;;;;;;;;;;;16.30;99.90;;;;;;4911544;29;20510;-84
2023/10/26 12:35:03;;;;;;;;;;;16.30;99.90;;;;;;4893631;29;19914;-84
2023/10/26 12:37:28;;;;;;;;;;;16.30;99.90;;;;;;4897855;29;20969;-85
2023/10/26 12:39:54;;;;;;;;;;;16.30;99.90;;;;;;4907640;29;19899;-84
2023/10/26 12:42:20;;;;;;;;;;;16.40;99.90;;;;;;4929763;29;19919;-84
2023/10/26 12:44:45;;;;;;;;;;;16.40;99.90;;;;;;4908505;29;20643;-81
2023/10/26 12:47:11;;;;;;;;;;;16.40;99.90;;;;;;4895741;29;19915;-83
2023/10/26 12:49:36;;;;;;;;;;;16.40;99.90;;;;;;4909942;29;20533;-83
2023/10/26 12:52:02;;;;;;;;;;;16.40;99.90;;;;;;4895405;29;19919;-85
2023/10/26 12:54:27;;;;;;;;;;;16.50;99.90;;;;;;4906788;29;19914;-83
2023/10/26 12:56:53;;;;;;;;;;;16.50;99.90;;;;;;4939186;28;20332;-83
2023/10/26 12:59:19;;;;;;;;;;;16.50;99.90;;;;;;4891359;29;20334;-86
2023/10/26 13:01:44;;;;;;;;;;;16.50;99.90;;;;;;4904069;29;20322;-87
2023/10/26 13:04:10;;;;;;;;;;;16.50;99.90;;;;;;4911446;29;19925;-87
2023/10/26 13:06:36;;;;;;;;;;;16.50;99.90;;;;;;4892960;29;20479;-85
2023/10/26 13:09:02;;;;;;;;;;;16.60;99.90;;;;;;4892445;29;19911;-88
2023/10/26 13:11:28;;;;;;;;;;;16.60;99.90;;;;;;4896993;29;20259;-85
2023/10/26 13:13:53;;;;;;;;;;;16.60;99.90;;;;;;4924278;29;19903;-89
2023/10/26 13:16:19;;;;;;;;;;;16.60;99.90;;;;;;4894705;29;20054;-86
2023/10/26 13:18:44;;;;;;;;;;;16.60;99.90;;;;;;4893631;29;19922;-83
2023/10/26 13:21:10;;;;;;;;;;;16.60;99.90;;;;;;4896777;29;20393;-87
2023/10/26 13:23:35;;;;;;;;;;;16.60;99.90;;;;;;4894982;29;19954;-85
2023/10/26 13:26:01;;;;;;;;;;;16.70;99.90;;;;;;4899793;29;20385;-87
2023/10/26 13:28:26;;;;;;;;;;;16.60;99.90;;;;;;4899661;29;19957;-84
2023/10/26 13:30:52;;;;;;;;;;;16.70;99.90;;;;;;4891081;29;19954;-86
2023/10/26 13:33:18;;;;;;;;;;;16.60;99.90;;;;;;4892057;29;19919;-86
2023/10/26 13:35:44;;;;;;;;;;;16.50;99.90;;;;;;4894694;29;19911;-83
2023/10/26 13:38:12;;;;;;;;;;;16.50;99.90;;;;;;4905938;29;19966;-86
2023/10/26 13:40:38;;;;;;;;;;;16.50;99.90;;;;;;4905255;29;19907;-83
2023/10/26 13:43:04;;;;;;;;;;;16.60;99.90;;;;;;4940316;29;19922;-83
2023/10/26 13:45:31;;;;;;;;;;;16.60;99.90;;;;;;4918844;29;19918;-84
2023/10/26 13:47:59;;;;;;;;;;;16.50;99.90;;;;;;4918586;29;19947;-84
2023/10/26 13:50:25;;;;;;;;;;;16.40;99.90;;;;;;4914403;29;19929;-85
2023/10/26 13:52:50;;;;;;;;;;;16.30;99.90;;;;;;4915140;29;19994;-83
2023/10/26 13:55:16;;;;;;;;;;;16.00;99.90;;;;;;4917156;29;19914;-84
2023/10/26 13:57:41;;;;;;;;;;;15.70;99.90;;;;;;4917582;29;19915;-84
2023/10/26 14:00:08;;;;;;;;;;;15.60;99.90;;;;;;4917787;29;19910;-83
2023/10/26 14:02:34;;;;;;;;;;;15.60;99.90;;;;;;4914032;29;19923;-84
2023/10/26 14:04:59;;;;;;;;;;;15.70;99.90;;;;;;4898426;29;19915;-83
2023/10/26 14:07:25;;;;;;;;;;;15.50;99.90;;;;;;4931702;29;19934;-84
2023/10/26 14:09:52;;;;;;;;;;;15.20;99.90;;;;;;4920239;29;19934;-83